Time;durP1;ratioP1;P1;durP2;ratioP2;P2;SDS_P1;SDS_P2;PMS_P1;PMS_P2;Temp;Humidity;BMP_temperature;BMP_pressure;BME280_temperature;BME280_humidity;BME280_pressure;Samples;Min_cycle;Max_cycle;Signal;HPM_P1;HPM_P2
2022/05/29 00:04:53;;;;;;;4.15;0.35;;;10.60;92.50;;;;;;10330648;28;20046;-56
2022/05/29 00:09:55;;;;;;;7.20;0.47;;;10.60;93.00;;;;;;10329391;28;20109;-56
2022/05/29 00:14:56;;;;;;;3.60;0.50;;;10.60;93.40;;;;;;10323083;28;20409;-58
2022/05/29 00:19:58;;;;;;;2.25;0.38;;;10.50;94.00;;;;;;10327293;28;20069;-57
2022/05/29 00:25:04;;;;;;;6.63;0.38;;;10.50;94.90;;;;;;10332276;28;20061;-57
2022/05/29 00:30:09;;;;;;;0.63;0.30;;;10.50;94.80;;;;;;10327286;28;20094;-57
2022/05/29 00:35:11;;;;;;;2.97;0.30;;;10.50;95.40;;;;;;10326809;28;20716;-55
2022/05/29 00:40:43;;;;;;;2.50;0.30;;;10.40;96.50;;;;;;10334559;28;20109;-56
2022/05/29 00:46:00;;;;;;;3.13;0.40;;;10.20;97.00;;;;;;10322299;28;20060;-55
2022/05/29 00:51:10;;;;;;;1.27;0.35;;;10.20;97.70;;;;;;10331853;28;20050;-55
2022/05/29 00:56:13;;;;;;;1.95;0.47;;;10.10;98.10;;;;;;10333749;28;20843;-56
2022/05/29 01:01:15;;;;;;;7.10;0.50;;;10.00;98.30;;;;;;10331269;28;20054;-57
2022/05/29 01:06:17;;;;;;;6.97;0.40;;;9.90;99.40;;;;;;10333609;28;20101;-57
2022/05/29 01:11:28;;;;;;;1.48;0.43;;;9.90;99.90;;;;;;10333383;28;20058;-55
2022/05/29 01:16:50;;;;;;;2.05;0.47;;;9.80;99.90;;;;;;10335492;28;20084;-56
2022/05/29 01:22:13;;;;;;;4.78;0.68;;;9.80;99.90;;;;;;10332983;28;20050;-58
2022/05/29 01:28:03;;;;;;;6.60;0.55;;;9.80;99.90;;;;;;10333968;28;20073;-57
2022/05/29 01:33:24;;;;;;;5.13;1.10;;;9.80;99.90;;;;;;10317481;28;20449;-57
2022/05/29 01:38:39;;;;;;;1.38;0.40;;;9.90;99.90;;;;;;10330744;28;20053;-58
2022/05/29 01:43:51;;;;;;;1.52;0.70;;;9.90;99.90;;;;;;10328546;28;20050;-57
2022/05/29 01:49:15;;;;;;;4.18;0.50;;;9.90;99.90;;;;;;10330691;28;20104;-56
2022/05/29 01:54:27;;;;;;;1.40;0.30;;;9.80;99.90;;;;;;10332820;28;20053;-56
2022/05/29 01:59:57;;;;;;;0.77;0.40;;;9.70;99.90;;;;;;10334494;28;20050;-57
2022/05/29 02:05:05;;;;;;;2.90;0.52;;;9.50;99.90;;;;;;10332362;28;20035;-56
2022/05/29 02:10:23;;;;;;;3.08;0.40;;;9.40;99.90;;;;;;10328032;28;20113;-57
2022/05/29 02:15:36;;;;;;;3.45;0.47;;;9.30;99.90;;;;;;10336950;28;20605;-57
2022/05/29 02:20:43;;;;;;;4.50;0.60;;;9.20;99.90;;;;;;10332278;28;20493;-58
2022/05/29 02:25:45;;;;;;;;;;;9.10;99.90;;;;;;10336408;28;20123;-58
2022/05/29 02:31:20;;;;;;;5.82;0.40;;;9.10;99.90;;;;;;10330391;28;19925;-58
2022/05/29 02:36:39;;;;;;;2.03;0.40;;;9.00;99.90;;;;;;10334857;28;20045;-59
2022/05/29 02:41:52;;;;;;;2.45;0.50;;;8.90;99.90;;;;;;10334015;28;20069;-56
2022/05/29 02:47:14;;;;;;;1.48;0.70;;;8.90;99.90;;;;;;10334880;28;20050;-57
2022/05/29 02:52:17;;;;;;;6.60;0.85;;;8.80;99.90;;;;;;10329338;28;20058;-58
2022/05/29 02:57:19;;;;;;;7.57;0.85;;;8.80;99.90;;;;;;10336975;28;20497;-57
2022/05/29 03:02:38;;;;;;;5.75;0.75;;;8.80;99.90;;;;;;10336011;28;20069;-57
2022/05/29 03:08:07;;;;;;;3.05;0.68;;;8.70;99.90;;;;;;10327680;28;20050;-56
2022/05/29 03:13:19;;;;;;;5.65;0.85;;;8.70;99.90;;;;;;10326637;28;20049;-56
2022/05/29 03:18:31;;;;;;;4.35;1.05;;;8.60;99.90;;;;;;10326873;28;20046;-56
2022/05/29 03:23:41;;;;;;;6.75;0.52;;;8.50;99.90;;;;;;10330611;28;20045;-59
2022/05/29 03:29:00;;;;;;;7.63;0.50;;;8.50;99.90;;;;;;10299810;23;20047;-87
2022/05/29 03:34:03;;;;;;;6.35;0.68;;;8.50;99.90;;;;;;10269125;28;20047;-86
2022/05/29 03:39:05;;;;;;;3.85;0.30;;;8.40;99.90;;;;;;10272746;28;20051;-87
2022/05/29 03:44:07;;;;;;;2.17;0.38;;;8.20;99.90;;;;;;10258700;28;20046;-87
2022/05/29 03:49:10;;;;;;;2.45;0.50;;;8.20;99.90;;;;;;10261811;28;20469;-87
2022/05/29 03:54:12;;;;;;;1.60;0.40;;;8.20;99.90;;;;;;10258268;28;20489;-86
2022/05/29 03:59:15;;;;;;;5.38;0.70;;;8.10;99.90;;;;;;10256556;28;20050;-86
2022/05/29 04:04:16;;;;;;;1.30;0.40;;;8.20;99.90;;;;;;10255567;28;20835;-85
2022/05/29 04:14:43;;;;;;;6.55;0.40;;;8.20;99.90;;;;;;10256905;28;20938;-86
2022/05/29 04:19:45;;;;;;;11.52;0.50;;;8.20;99.90;;;;;;10263800;28;20524;-87
2022/05/29 04:24:47;;;;;;;1.23;0.20;;;8.30;99.90;;;;;;10269071;28;20051;-87
2022/05/29 04:29:49;;;;;;;1.95;0.45;;;8.40;99.90;;;;;;10278812;28;20080;-87
2022/05/29 04:34:57;;;;;;;2.08;0.73;;;8.50;99.90;;;;;;10307164;28;20134;-87
2022/05/29 04:39:59;;;;;;;6.97;0.32;;;8.60;99.90;;;;;;10300606;28;20528;-87
2022/05/29 04:45:01;;;;;;;3.60;0.60;;;8.60;99.90;;;;;;10313468;28;20042;-86
2022/05/29 04:50:05;;;;;;;1.95;0.38;;;8.80;99.90;;;;;;10269163;28;20070;-87
2022/05/29 04:55:08;;;;;;;3.65;0.30;;;8.80;99.90;;;;;;10289270;28;20062;-87
2022/05/29 05:00:17;;;;;;;4.03;0.35;;;8.90;99.90;;;;;;10308627;28;20056;-90
2022/05/29 05:05:20;;;;;;;5.50;0.45;;;9.00;99.90;;;;;;10305926;28;20708;-88
2022/05/29 05:10:22;;;;;;;1.52;0.65;;;9.10;99.90;;;;;;10265653;28;20090;-88
2022/05/29 05:15:24;;;;;;;4.38;0.47;;;9.20;99.90;;;;;;10296031;28;20063;-89
2022/05/29 05:20:26;;;;;;;3.72;0.22;;;9.20;99.90;;;;;;10301344;28;20046;-87
2022/05/29 05:25:28;;;;;;;2.15;0.43;;;9.30;99.90;;;;;;10309979;28;20110;-87
2022/05/29 05:30:30;;;;;;;2.05;0.55;;;9.40;99.90;;;;;;10288376;28;20046;-87
2022/05/29 05:35:32;;;;;;;5.43;0.50;;;9.60;99.90;;;;;;10287933;28;20049;-88
2022/05/29 05:40:34;;;;;;;1.48;0.20;;;9.80;99.90;;;;;;10279882;28;20058;-87
2022/05/29 05:45:40;;;;;;;1.52;0.25;;;9.90;99.90;;;;;;10305816;28;20141;-88
2022/05/29 05:50:42;;;;;;;1.50;0.22;;;10.10;99.90;;;;;;10300030;28;20065;-87
2022/05/29 05:55:44;;;;;;;5.53;0.40;;;10.30;99.90;;;;;;10312725;28;20145;-87
2022/05/29 06:00:48;;;;;;;1.65;0.32;;;10.50;99.90;;;;;;10292070;28;20137;-88
2022/05/29 06:05:50;;;;;;;2.53;0.20;;;10.60;99.90;;;;;;10311856;28;20141;-89
2022/05/29 06:10:52;;;;;;;2.97;0.20;;;10.80;99.90;;;;;;10305140;28;20476;-89
2022/05/29 06:15:54;;;;;;;5.63;0.25;;;11.00;99.90;;;;;;10297381;28;20059;-88
2022/05/29 06:20:58;;;;;;;6.53;0.35;;;11.00;99.90;;;;;;10277236;28;20052;-89
2022/05/29 06:26:04;;;;;;;2.30;0.22;;;11.00;99.90;;;;;;10279728;28;20142;-89
2022/05/29 06:31:08;;;;;;;1.30;0.20;;;11.10;96.60;;;;;;10280936;28;20079;-90
2022/05/29 06:36:21;;;;;;;2.30;0.20;;;11.20;94.40;;;;;;10294671;28;20077;-88
2022/05/29 06:41:25;;;;;;;1.98;0.28;;;11.40;95.40;;;;;;10302969;28;20096;-88
2022/05/29 06:46:27;;;;;;;1.17;0.43;;;11.40;95.10;;;;;;10279493;28;20389;-88
2022/05/29 06:51:29;;;;;;;1.40;0.20;;;11.50;95.50;;;;;;10271484;28;20051;-89
2022/05/29 06:56:31;;;;;;;1.17;0.20;;;11.70;94.20;;;;;;10307212;28;20072;-89
2022/05/29 07:07:00;;;;;;;2.53;0.10;;;11.90;90.60;;;;;;10281342;28;20054;-88
2022/05/29 07:12:24;;;;;;;0.93;0.20;;;12.00;89.00;;;;;;10299738;28;20046;-88
2022/05/29 07:17:27;;;;;;;2.47;0.20;;;12.30;87.40;;;;;;10309629;28;20069;-89
2022/05/29 07:22:31;;;;;;;3.33;0.20;;;12.50;87.80;;;;;;10294011;28;20552;-91
2022/05/29 07:27:34;;;;;;;0.98;0.15;;;12.70;82.60;;;;;;10262313;28;20061;-90
2022/05/29 07:32:36;;;;;;;2.10;0.35;;;12.90;81.20;;;;;;10295924;28;20073;-90
2022/05/29 07:37:38;;;;;;;5.95;0.43;;;13.10;77.40;;;;;;10291260;28;20041;-91
2022/05/29 07:48:01;;;;;;;4.93;0.20;;;13.60;75.70;;;;;;10312246;28;20038;-89
2022/05/29 07:53:02;;;;;;;1.05;0.10;;;13.60;72.50;;;;;;10298013;28;20057;-89
2022/05/29 07:58:06;;;;;;;1.65;0.20;;;13.30;72.10;;;;;;10282815;28;20122;-89
2022/05/29 08:03:08;;;;;;;0.73;0.30;;;13.30;73.50;;;;;;10289528;28;20165;-89
2022/05/29 08:08:11;;;;;;;0.73;0.20;;;13.10;72.50;;;;;;10278765;28;20497;-89
2022/05/29 08:13:14;;;;;;;1.25;0.32;;;13.00;72.80;;;;;;10288404;28;20105;-89
2022/05/29 08:18:16;;;;;;;1.73;0.20;;;13.10;73.10;;;;;;10298452;28;20101;-90
2022/05/29 08:23:18;;;;;;;1.23;0.20;;;13.30;72.70;;;;;;10273608;28;20089;-90
2022/05/29 08:33:43;;;;;;;1.42;0.30;;;13.70;74.50;;;;;;10304780;28;20084;-90
2022/05/29 08:38:47;;;;;;;1.40;0.13;;;14.10;71.50;;;;;;10303938;28;20074;-89
2022/05/29 08:43:55;;;;;;;2.08;0.20;;;13.90;68.60;;;;;;10296311;28;20090;-90
2022/05/29 08:48:57;;;;;;;0.60;0.28;;;14.30;69.40;;;;;;10321522;28;20120;-91
2022/05/29 08:54:08;;;;;;;2.60;0.05;;;14.10;67.80;;;;;;10307788;28;20061;-91
2022/05/29 08:59:20;;;;;;;1.40;0.10;;;14.40;63.90;;;;;;10311304;28;20094;-90
2022/05/29 09:04:40;;;;;;;0.17;0.17;;;14.60;66.20;;;;;;10305884;28;20059;-90
2022/05/29 09:10:03;;;;;;;1.48;0.20;;;14.70;64.20;;;;;;10325132;28;20043;-90
2022/05/29 09:15:07;;;;;;;1.50;0.20;;;14.80;65.80;;;;;;10295934;28;20089;-91
2022/05/29 09:20:29;;;;;;;1.45;0.13;;;15.00;63.90;;;;;;10283389;28;20119;-90
2022/05/29 09:25:35;;;;;;;1.83;0.17;;;14.80;60.50;;;;;;10317570;28;20061;-90
2022/05/29 09:30:40;;;;;;;1.50;0.10;;;15.30;63.10;;;;;;10285103;28;20092;-90
2022/05/29 09:36:05;;;;;;;1.40;0.10;;;15.60;59.40;;;;;;10310805;28;20061;-90
2022/05/29 09:41:26;;;;;;;0.20;0.00;;;15.90;59.10;;;;;;10290134;28;20501;-90
2022/05/29 09:46:32;;;;;;;1.63;0.10;;;15.80;58.90;;;;;;10268007;28;20065;-90
2022/05/29 09:51:36;;;;;;;3.10;0.32;;;15.60;57.50;;;;;;10277351;28;20709;-90
2022/05/29 09:56:38;;;;;;;1.65;0.10;;;16.00;60.30;;;;;;10292784;28;20050;-91
2022/05/29 10:01:42;;;;;;;2.00;0.10;;;16.30;58.70;;;;;;10275874;28;20042;-90
2022/05/29 10:06:48;;;;;;;0.55;0.10;;;15.70;56.00;;;;;;10269602;28;20058;-90
2022/05/29 10:11:53;;;;;;;2.17;0.20;;;15.70;57.30;;;;;;10278018;28;20055;-90
2022/05/29 10:16:55;;;;;;;0.43;0.10;;;15.60;57.50;;;;;;10280916;28;20046;-89
2022/05/29 10:21:58;;;;;;;3.20;0.20;;;15.60;58.20;;;;;;10299703;28;20572;-90
2022/05/29 10:27:02;;;;;;;2.90;0.03;;;15.40;57.70;;;;;;10294564;28;20058;-89
2022/05/29 10:32:10;;;;;;;1.65;0.30;;;15.70;59.60;;;;;;10285528;28;20398;-90
2022/05/29 10:37:48;;;;;;;1.17;0.10;;;16.10;58.20;;;;;;10294543;28;20121;-90
2022/05/29 10:42:53;;;;;;;2.58;0.20;;;16.20;58.60;;;;;;10218662;28;20050;-89
2022/05/29 10:48:13;;;;;;;0.10;0.00;;;16.20;57.20;;;;;;10275703;28;20050;-89
2022/05/29 10:53:38;;;;;;;0.35;0.28;;;15.90;57.10;;;;;;10289318;28;20092;-89
2022/05/29 10:58:46;;;;;;;0.63;0.50;;;16.10;57.80;;;;;;10254075;28;20114;-89
2022/05/29 11:04:08;;;;;;;1.30;0.25;;;16.00;58.30;;;;;;10310944;28;20084;-90
2022/05/29 11:09:16;;;;;;;1.00;0.20;;;16.10;57.60;;;;;;10305647;28;20150;-90
2022/05/29 11:15:09;;;;;;;0.50;0.10;;;16.70;55.10;;;;;;10287886;28;20089;-90
2022/05/29 11:20:32;;;;;;;0.32;0.13;;;16.80;55.70;;;;;;10239064;28;20086;-90
2022/05/29 11:25:59;;;;;;;0.60;0.10;;;16.30;53.90;;;;;;10308451;28;20054;-89
2022/05/29 11:31:10;;;;;;;2.27;0.10;;;16.30;55.40;;;;;;10278745;28;20512;-91
2022/05/29 11:36:40;;;;;;;0.90;0.10;;;16.10;54.70;;;;;;10276606;28;20178;-90
2022/05/29 11:41:55;;;;;;;1.02;0.17;;;16.90;56.70;;;;;;10291869;28;20653;-90
2022/05/29 11:52:47;;;;;;;0.30;0.10;;;17.50;50.40;;;;;;10283797;28;20042;-90
2022/05/29 11:57:58;;;;;;;0.60;0.00;;;17.50;51.40;;;;;;10285911;28;20046;-89
2022/05/29 12:03:19;;;;;;;1.60;0.10;;;18.30;49.40;;;;;;10276381;28;21564;-90
2022/05/29 12:08:40;;;;;;;0.63;0.10;;;18.80;49.00;;;;;;10295524;28;20047;-89
2022/05/29 12:13:55;;;;;;;2.17;0.10;;;18.80;48.90;;;;;;10283991;28;20043;-89
2022/05/29 12:19:03;;;;;;;0.70;0.10;;;18.20;49.00;;;;;;10298946;28;20046;-89
2022/05/29 12:24:10;;;;;;;1.25;0.20;;;17.90;49.10;;;;;;10300129;28;20106;-90
2022/05/29 12:29:15;;;;;;;;;;;17.80;47.90;;;;;;10286851;28;20046;-89
2022/05/29 12:34:21;;;;;;;2.42;0.10;;;17.90;50.00;;;;;;10283984;28;19922;-90
2022/05/29 12:39:42;;;;;;;2.05;0.10;;;17.70;47.80;;;;;;10300700;28;20158;-89
2022/05/29 12:45:27;;;;;;;2.00;0.10;;;17.10;48.10;;;;;;10274861;28;20093;-88
2022/05/29 12:51:17;;;;;;;0.60;0.10;;;17.10;49.10;;;;;;10293952;28;20046;-89
2022/05/29 12:57:03;;;;;;;0.45;0.10;;;17.60;49.30;;;;;;10268764;28;20078;-88
2022/05/29 13:02:42;;;;;;;0.65;0.20;;;17.30;48.30;;;;;;10262865;28;20114;-89
2022/05/29 13:08:00;;;;;;;0.28;0.10;;;17.80;49.50;;;;;;10299384;28;20057;-90
2022/05/29 13:13:13;;;;;;;1.80;0.10;;;17.80;49.00;;;;;;10305091;28;20046;-88
2022/05/29 13:23:45;;;;;;;0.75;0.30;;;18.60;48.00;;;;;;10298326;28;20508;-90
2022/05/29 13:29:03;;;;;;;2.50;0.10;;;18.40;51.20;;;;;;10299222;28;20065;-89
2022/05/29 13:34:26;;;;;;;0.70;0.10;;;18.80;49.80;;;;;;10284757;28;20046;-89
2022/05/29 13:40:09;;;;;;;1.25;0.10;;;19.90;45.70;;;;;;10286635;28;20049;-90
2022/05/29 13:45:23;;;;;;;0.90;0.40;;;19.70;45.30;;;;;;10300978;28;20047;-90
2022/05/29 13:50:39;;;;;;;0.73;0.15;;;20.60;46.00;;;;;;10292789;28;20054;-90
2022/05/29 13:55:41;;;;;;;0.30;0.20;;;19.80;47.00;;;;;;10310509;28;20058;-90
2022/05/29 14:06:24;;;;;;;2.28;0.10;;;20.60;45.80;;;;;;10316414;28;20485;-89
2022/05/29 14:11:43;;;;;;;0.55;0.20;;;19.50;46.50;;;;;;10287577;28;20513;-89
2022/05/29 14:16:49;;;;;;;3.20;0.20;;;19.60;47.50;;;;;;10296865;28;20047;-88
2022/05/29 14:28:05;;;;;;;0.63;0.28;;;18.90;49.30;;;;;;10268130;28;20095;-89
2022/05/29 14:33:22;;;;;;;0.95;0.30;;;18.90;50.70;;;;;;10271710;28;20061;-89
2022/05/29 14:39:01;;;;;;;0.68;0.40;;;18.20;51.90;;;;;;10299518;28;20070;-88
2022/05/29 14:44:24;;;;;;;0.68;0.30;;;18.00;52.90;;;;;;10288329;28;20061;-89
2022/05/29 14:49:45;;;;;;;1.02;0.63;;;18.20;53.60;;;;;;10287061;28;20054;-89
2022/05/29 14:54:50;;;;;;;0.35;0.30;;;17.60;53.50;;;;;;10263536;28;20048;-88
2022/05/29 14:59:52;;;;;;;0.40;0.30;;;17.50;53.60;;;;;;10278565;28;20464;-89
2022/05/29 15:05:04;;;;;;;2.83;0.50;;;18.00;54.10;;;;;;10283222;28;20129;-88
2022/05/29 15:10:35;;;;;;;0.95;0.38;;;18.30;53.80;;;;;;10282113;28;20076;-89
2022/05/29 15:15:55;;;;;;;1.38;0.40;;;18.30;56.50;;;;;;10272892;28;20137;-89
2022/05/29 15:26:31;;;;;;;0.65;0.40;;;18.30;58.10;;;;;;10286751;28;21022;-89
2022/05/29 15:31:35;;;;;;;0.47;0.38;;;17.90;60.90;;;;;;10287361;28;20051;-89
2022/05/29 15:36:49;;;;;;;0.95;0.30;;;17.40;62.30;;;;;;10272167;28;20060;-88
2022/05/29 15:41:51;;;;;;;2.03;0.40;;;17.00;64.20;;;;;;10289952;28;20035;-88
2022/05/29 15:47:23;;;;;;;0.65;0.30;;;16.70;65.70;;;;;;10281286;28;20106;-88
2022/05/29 15:52:40;;;;;;;0.60;0.30;;;16.50;66.20;;;;;;10219038;28;20102;-89
2022/05/29 15:57:46;;;;;;;0.63;0.30;;;16.50;66.30;;;;;;10295450;28;20050;-90
2022/05/29 16:02:49;;;;;;;2.05;0.40;;;16.40;65.60;;;;;;10288373;28;20828;-90
2022/05/29 16:07:53;;;;;;;0.60;0.40;;;16.50;65.60;;;;;;10304178;28;20074;-90
2022/05/29 16:13:04;;;;;;;1.55;0.30;;;16.90;64.90;;;;;;10287241;28;20055;-89
2022/05/29 16:18:11;;;;;;;0.73;0.25;;;16.90;65.10;;;;;;10300979;28;20137;-89
2022/05/29 16:23:22;;;;;;;2.40;0.30;;;17.20;63.50;;;;;;10268895;28;20050;-89
2022/05/29 16:28:51;;;;;;;0.40;0.30;;;17.70;61.50;;;;;;10295110;28;20489;-89
2022/05/29 16:34:14;;;;;;;0.50;0.30;;;17.80;61.40;;;;;;10287145;28;20486;-90
2022/05/29 16:50:23;;;;;;;0.73;0.20;;;16.70;64.30;;;;;;10303344;28;20054;-89
2022/05/29 16:55:32;;;;;;;0.65;0.30;;;16.40;65.30;;;;;;10308423;28;20058;-89
2022/05/29 17:01:07;;;;;;;0.63;0.20;;;16.40;67.70;;;;;;10284584;28;20479;-89
2022/05/29 17:06:13;;;;;;;1.98;0.30;;;16.20;65.80;;;;;;10291193;28;20057;-89
2022/05/29 17:11:22;;;;;;;0.82;0.20;;;16.20;66.50;;;;;;10285664;28;20039;-89
2022/05/29 17:16:25;;;;;;;3.08;0.30;;;16.10;67.00;;;;;;10285724;28;20536;-88
2022/05/29 17:21:33;;;;;;;0.32;0.20;;;16.20;67.40;;;;;;10271105;28;20055;-89
2022/05/29 17:27:15;;;;;;;0.20;0.10;;;16.20;67.10;;;;;;10296913;28;20046;-89
2022/05/29 17:32:26;;;;;;;1.73;0.20;;;16.60;67.00;;;;;;10269820;28;20121;-89
2022/05/29 17:37:57;;;;;;;0.22;0.10;;;17.30;63.90;;;;;;10262017;28;20054;-88
2022/05/29 17:43:00;;;;;;;0.10;0.10;;;17.70;62.00;;;;;;10279809;28;20054;-89
2022/05/29 17:48:11;;;;;;;1.10;0.10;;;18.20;60.80;;;;;;10274454;28;20138;-89
2022/05/29 17:53:27;;;;;;;0.52;0.05;;;18.20;60.40;;;;;;10281665;28;20058;-89
2022/05/29 17:58:31;;;;;;;0.52;0.20;;;17.80;63.00;;;;;;10271143;28;20465;-89
2022/05/29 18:03:35;;;;;;;1.40;0.20;;;17.70;65.80;;;;;;10289310;28;20085;-89
2022/05/29 18:08:38;;;;;;;0.57;0.20;;;17.40;67.00;;;;;;10282159;28;20065;-89
2022/05/29 18:13:44;;;;;;;1.48;0.20;;;16.80;68.80;;;;;;10292163;28;20050;-89
2022/05/29 18:18:49;;;;;;;0.30;0.20;;;16.60;70.20;;;;;;10289707;28;20489;-89
2022/05/29 18:23:51;;;;;;;0.55;0.20;;;16.30;72.00;;;;;;10283017;28;20054;-89
2022/05/29 18:28:54;;;;;;;0.90;0.20;;;15.90;74.40;;;;;;10314429;28;20065;-88
2022/05/29 18:34:00;;;;;;;0.50;0.20;;;15.60;75.70;;;;;;10295704;28;20046;-89
2022/05/29 18:39:03;;;;;;;1.35;0.10;;;15.40;76.40;;;;;;10243215;28;20050;-88
2022/05/29 18:44:05;;;;;;;0.20;0.10;;;15.00;73.00;;;;;;10304001;28;20404;-89
2022/05/29 18:49:10;;;;;;;0.20;0.13;;;14.70;74.70;;;;;;10311038;28;20183;-88
2022/05/29 18:54:16;;;;;;;0.17;0.03;;;14.50;76.50;;;;;;10270563;28;20093;-88
2022/05/29 18:59:19;;;;;;;3.20;0.10;;;14.30;78.20;;;;;;10265693;28;21989;-89
2022/05/29 19:04:24;;;;;;;0.40;0.10;;;14.10;79.10;;;;;;10275024;28;20053;-88
2022/05/29 19:09:26;;;;;;;0.43;0.10;;;14.10;79.90;;;;;;10262637;28;20054;-88
2022/05/29 19:14:29;;;;;;;0.70;0.10;;;13.90;80.20;;;;;;10273275;28;20046;-88
2022/05/29 19:19:32;;;;;;;0.32;0.10;;;13.80;81.40;;;;;;10272329;28;20065;-88
2022/05/29 19:24:41;;;;;;;0.50;0.10;;;13.60;82.30;;;;;;10267863;28;20657;-87
2022/05/29 19:29:45;;;;;;;0.35;0.10;;;13.50;83.40;;;;;;10298742;28;20050;-89
2022/05/29 19:34:50;;;;;;;2.88;0.10;;;13.20;85.00;;;;;;10280972;28;20059;-85
2022/05/29 19:39:52;;;;;;;2.72;0.10;;;13.00;87.00;;;;;;10271737;28;20047;-85
2022/05/29 19:44:55;;;;;;;0.30;0.10;;;12.80;89.00;;;;;;10284241;28;20089;-86
2022/05/29 19:50:02;;;;;;;2.22;0.10;;;12.60;90.40;;;;;;10278891;28;20051;-86
2022/05/29 19:55:09;;;;;;;1.08;0.10;;;12.50;91.30;;;;;;10270968;28;20050;-85
2022/05/29 20:00:12;;;;;;;2.95;0.10;;;12.40;92.20;;;;;;10290879;28;20089;-86
2022/05/29 20:05:17;;;;;;;0.10;0.10;;;12.20;93.40;;;;;;10283959;28;20038;-85
2022/05/29 20:10:22;;;;;;;0.15;0.10;;;12.00;94.20;;;;;;10285267;28;20058;-85
2022/05/29 20:15:24;;;;;;;0.20;0.10;;;11.90;95.50;;;;;;10290501;28;20051;-86
2022/05/29 20:20:27;;;;;;;0.40;0.15;;;11.80;96.40;;;;;;10290394;28;20073;-85
2022/05/29 20:25:29;;;;;;;1.42;0.10;;;11.70;97.40;;;;;;10294222;28;20066;-85
2022/05/29 20:30:31;;;;;;;2.63;0.10;;;11.70;98.10;;;;;;10286552;28;20046;-85
2022/05/29 20:35:33;;;;;;;0.20;0.10;;;11.60;98.90;;;;;;10281054;28;20047;-85
2022/05/29 20:40:36;;;;;;;0.13;0.13;;;11.60;99.50;;;;;;10275454;28;20501;-85
2022/05/29 20:45:39;;;;;;;1.75;0.10;;;11.50;99.90;;;;;;10274237;28;20047;-85
2022/05/29 20:50:41;;;;;;;0.25;0.10;;;11.30;99.90;;;;;;10275968;28;20061;-85
2022/05/29 20:55:43;;;;;;;0.43;0.10;;;11.30;99.90;;;;;;10284068;28;20422;-85
2022/05/29 21:00:45;;;;;;;2.80;0.30;;;11.20;99.90;;;;;;10300893;28;20070;-85
2022/05/29 21:05:47;;;;;;;1.83;0.10;;;11.10;99.90;;;;;;10300037;28;20051;-85
2022/05/29 21:10:49;;;;;;;0.93;0.35;;;11.10;99.90;;;;;;10293173;28;20065;-85
2022/05/29 21:15:51;;;;;;;0.30;0.10;;;11.00;99.90;;;;;;10273301;28;20054;-86
2022/05/29 21:20:53;;;;;;;2.50;0.17;;;11.00;99.90;;;;;;10283873;28;20135;-86
2022/05/29 21:25:59;;;;;;;0.47;0.20;;;11.00;99.90;;;;;;10301209;28;20057;-85
2022/05/29 21:31:05;;;;;;;0.65;0.20;;;10.90;99.90;;;;;;10293052;28;20136;-85
2022/05/29 21:36:28;;;;;;;0.28;0.20;;;10.80;99.90;;;;;;10286374;28;20069;-85
2022/05/29 21:41:30;;;;;;;1.30;0.10;;;10.80;99.90;;;;;;10293652;28;20086;-85
2022/05/29 21:46:36;;;;;;;0.40;0.20;;;10.70;99.90;;;;;;10272106;28;20058;-85
2022/05/29 21:51:38;;;;;;;0.40;0.20;;;10.70;99.90;;;;;;10296882;28;20067;-85
2022/05/29 21:56:41;;;;;;;1.80;0.13;;;10.70;99.90;;;;;;10291786;28;20054;-85
2022/05/29 22:01:43;;;;;;;1.08;0.22;;;10.70;99.90;;;;;;10285451;28;20047;-85
2022/05/29 22:06:46;;;;;;;0.30;0.20;;;10.70;99.90;;;;;;10300441;28;20039;-85
2022/05/29 22:11:48;;;;;;;0.30;0.13;;;10.70;99.90;;;;;;10269250;28;20133;-85
2022/05/29 22:16:50;;;;;;;0.35;0.20;;;10.70;99.90;;;;;;10281849;28;20061;-85
2022/05/29 22:21:52;;;;;;;0.20;0.20;;;10.70;99.90;;;;;;10288198;28;20104;-85
2022/05/29 22:26:54;;;;;;;0.80;0.15;;;10.60;99.90;;;;;;10288929;28;20043;-85
2022/05/29 22:32:17;;;;;;;0.20;0.20;;;10.70;99.90;;;;;;10299110;28;20070;-86
2022/05/29 22:37:20;;;;;;;0.20;0.10;;;10.60;99.90;;;;;;10301358;28;20047;-86
2022/05/29 22:42:22;;;;;;;0.75;0.20;;;10.60;99.90;;;;;;10299413;28;20366;-86
2022/05/29 22:47:45;;;;;;;1.27;0.20;;;10.70;99.90;;;;;;10274745;28;20429;-86
2022/05/29 22:52:50;;;;;;;2.63;0.20;;;10.70;99.90;;;;;;10286915;28;20054;-85
2022/05/29 22:57:52;;;;;;;0.90;0.20;;;10.50;99.90;;;;;;10274594;28;20058;-85
2022/05/29 23:03:19;;;;;;;0.80;0.30;;;10.50;99.90;;;;;;10274874;28;20046;-85
2022/05/29 23:08:22;;;;;;;1.77;0.30;;;10.60;99.90;;;;;;10297295;28;20055;-85
2022/05/29 23:13:24;;;;;;;0.68;0.30;;;10.60;99.90;;;;;;10282847;28;20529;-85
2022/05/29 23:18:26;;;;;;;0.20;0.20;;;10.60;99.90;;;;;;10289551;28;20049;-85
2022/05/29 23:23:33;;;;;;;0.30;0.20;;;10.70;99.90;;;;;;10269394;28;20086;-85
2022/05/29 23:28:36;;;;;;;3.63;0.25;;;10.70;99.90;;;;;;10263575;28;20057;-85
2022/05/29 23:33:38;;;;;;;0.60;0.25;;;10.60;99.90;;;;;;10263890;28;20051;-86
2022/05/29 23:38:41;;;;;;;1.08;0.20;;;10.50;99.90;;;;;;10262179;28;20062;-85
2022/05/29 23:43:43;;;;;;;1.60;0.30;;;10.50;99.90;;;;;;10258319;28;20063;-85
2022/05/29 23:48:51;;;;;;;0.95;0.30;;;10.50;99.90;;;;;;10255581;28;20073;-84
2022/05/29 23:53:59;;;;;;;0.30;0.30;;;10.40;99.90;;;;;;10260269;28;20070;-85
2022/05/29 23:59:01;;;;;;;0.90;0.40;;;10.30;99.90;;;;;;10256188;28;20126;-85
